sensor_id;sensor_type;location;lat;lon;timestamp;P1;durP1;ratioP1;P2;durP2;ratioP2
10987;SDS011;5547;42.672;23.230;2024-02-28T00:02:44;43.23;;;22.53;;
10987;SDS011;5547;42.672;23.230;2024-02-28T00:05:44;31.23;;;17.83;;
10987;SDS011;5547;42.672;23.230;2024-02-28T00:08:46;45.50;;;24.75;;
10987;SDS011;5547;42.672;23.230;2024-02-28T00:11:46;115.30;;;54.57;;
10987;SDS011;5547;42.672;23.230;2024-02-28T00:14:46;41.33;;;21.77;;
10987;SDS011;5547;42.672;23.230;2024-02-28T00:17:47;28.40;;;18.20;;
10987;SDS011;5547;42.672;23.230;2024-02-28T00:20:51;30.33;;;18.33;;
10987;SDS011;5547;42.672;23.230;2024-02-28T00:23:51;36.13;;;20.97;;
10987;SDS011;5547;42.672;23.230;2024-02-28T00:26:51;32.60;;;19.40;;
10987;SDS011;5547;42.672;23.230;2024-02-28T00:29:52;29.30;;;17.27;;
10987;SDS011;5547;42.672;23.230;2024-02-28T00:32:52;31.53;;;18.17;;
10987;SDS011;5547;42.672;23.230;2024-02-28T00:35:53;30.10;;;18.47;;
10987;SDS011;5547;42.672;23.230;2024-02-28T00:38:53;33.08;;;18.85;;
10987;SDS011;5547;42.672;23.230;2024-02-28T00:41:54;30.73;;;18.07;;
10987;SDS011;5547;42.672;23.230;2024-02-28T00:44:54;34.10;;;20.00;;
10987;SDS011;5547;42.672;23.230;2024-02-28T00:47:55;37.37;;;22.43;;
10987;SDS011;5547;42.672;23.230;2024-02-28T00:50:55;27.73;;;16.73;;
10987;SDS011;5547;42.672;23.230;2024-02-28T00:53:55;27.80;;;17.43;;
10987;SDS011;5547;42.672;23.230;2024-02-28T00:56:56;29.40;;;17.10;;
10987;SDS011;5547;42.672;23.230;2024-02-28T00:59:56;29.90;;;17.23;;
10987;SDS011;5547;42.672;23.230;2024-02-28T01:02:57;30.13;;;17.42;;
10987;SDS011;5547;42.672;23.230;2024-02-28T01:05:57;28.83;;;16.87;;
10987;SDS011;5547;42.672;23.230;2024-02-28T01:09:01;29.48;;;17.42;;
10987;SDS011;5547;42.672;23.230;2024-02-28T01:12:01;29.67;;;17.40;;
10987;SDS011;5547;42.672;23.230;2024-02-28T01:15:01;29.30;;;17.20;;
10987;SDS011;5547;42.672;23.230;2024-02-28T01:18:01;28.75;;;17.33;;
10987;SDS011;5547;42.672;23.230;2024-02-28T01:21:02;27.00;;;16.57;;
10987;SDS011;5547;42.672;23.230;2024-02-28T01:24:02;29.10;;;17.57;;
10987;SDS011;5547;42.672;23.230;2024-02-28T01:27:02;30.00;;;17.00;;
10987;SDS011;5547;42.672;23.230;2024-02-28T01:30:03;31.17;;;18.43;;
10987;SDS011;5547;42.672;23.230;2024-02-28T01:33:04;29.50;;;17.30;;
10987;SDS011;5547;42.672;23.230;2024-02-28T01:36:06;41.10;;;23.83;;
10987;SDS011;5547;42.672;23.230;2024-02-28T01:39:06;32.75;;;19.55;;
10987;SDS011;5547;42.672;23.230;2024-02-28T01:42:06;33.27;;;18.93;;
10987;SDS011;5547;42.672;23.230;2024-02-28T01:45:07;31.80;;;18.73;;
10987;SDS011;5547;42.672;23.230;2024-02-28T01:48:10;31.02;;;17.58;;
10987;SDS011;5547;42.672;23.230;2024-02-28T01:51:11;30.95;;;17.85;;
10987;SDS011;5547;42.672;23.230;2024-02-28T01:54:12;33.13;;;18.52;;
10987;SDS011;5547;42.672;23.230;2024-02-28T01:57:12;31.80;;;17.93;;
10987;SDS011;5547;42.672;23.230;2024-02-28T02:00:13;32.37;;;17.60;;
10987;SDS011;5547;42.672;23.230;2024-02-28T02:03:15;28.67;;;17.42;;
10987;SDS011;5547;42.672;23.230;2024-02-28T02:06:16;31.77;;;18.20;;
10987;SDS011;5547;42.672;23.230;2024-02-28T02:09:16;29.20;;;18.20;;
10987;SDS011;5547;42.672;23.230;2024-02-28T02:12:16;29.33;;;16.93;;
10987;SDS011;5547;42.672;23.230;2024-02-28T02:15:17;33.77;;;18.27;;
10987;SDS011;5547;42.672;23.230;2024-02-28T02:18:17;33.33;;;19.67;;
10987;SDS011;5547;42.672;23.230;2024-02-28T02:21:18;33.40;;;19.15;;
10987;SDS011;5547;42.672;23.230;2024-02-28T02:24:19;33.53;;;19.52;;
10987;SDS011;5547;42.672;23.230;2024-02-28T02:27:19;29.90;;;18.97;;
10987;SDS011;5547;42.672;23.230;2024-02-28T02:30:19;30.77;;;19.03;;
10987;SDS011;5547;42.672;23.230;2024-02-28T02:33:20;31.53;;;18.27;;
10987;SDS011;5547;42.672;23.230;2024-02-28T02:36:20;32.17;;;18.77;;
10987;SDS011;5547;42.672;23.230;2024-02-28T02:39:20;34.33;;;20.50;;
10987;SDS011;5547;42.672;23.230;2024-02-28T02:42:21;36.85;;;21.25;;
10987;SDS011;5547;42.672;23.230;2024-02-28T02:45:21;34.13;;;19.87;;
10987;SDS011;5547;42.672;23.230;2024-02-28T02:48:21;32.77;;;18.10;;
10987;SDS011;5547;42.672;23.230;2024-02-28T02:51:21;32.13;;;19.97;;
10987;SDS011;5547;42.672;23.230;2024-02-28T02:54:22;31.63;;;19.67;;
10987;SDS011;5547;42.672;23.230;2024-02-28T02:57:22;35.83;;;20.43;;
10987;SDS011;5547;42.672;23.230;2024-02-28T03:00:22;31.83;;;20.60;;
10987;SDS011;5547;42.672;23.230;2024-02-28T03:03:24;39.47;;;24.13;;
10987;SDS011;5547;42.672;23.230;2024-02-28T03:06:24;40.17;;;23.27;;
10987;SDS011;5547;42.672;23.230;2024-02-28T03:09:24;143.85;;;30.40;;
10987;SDS011;5547;42.672;23.230;2024-02-28T03:12:25;40.00;;;22.30;;
10987;SDS011;5547;42.672;23.230;2024-02-28T03:15:25;58.57;;;25.60;;
10987;SDS011;5547;42.672;23.230;2024-02-28T03:18:25;83.80;;;30.77;;
10987;SDS011;5547;42.672;23.230;2024-02-28T03:21:25;52.00;;;28.50;;
10987;SDS011;5547;42.672;23.230;2024-02-28T03:24:26;72.30;;;35.80;;
10987;SDS011;5547;42.672;23.230;2024-02-28T03:27:26;56.63;;;29.97;;
10987;SDS011;5547;42.672;23.230;2024-02-28T03:30:26;53.97;;;29.13;;
10987;SDS011;5547;42.672;23.230;2024-02-28T03:33:26;45.73;;;25.23;;
10987;SDS011;5547;42.672;23.230;2024-02-28T03:36:28;50.13;;;26.87;;
10987;SDS011;5547;42.672;23.230;2024-02-28T03:39:28;43.90;;;25.60;;
10987;SDS011;5547;42.672;23.230;2024-02-28T03:42:28;40.20;;;23.80;;
10987;SDS011;5547;42.672;23.230;2024-02-28T03:45:28;42.77;;;23.83;;
10987;SDS011;5547;42.672;23.230;2024-02-28T03:48:32;42.88;;;24.50;;
10987;SDS011;5547;42.672;23.230;2024-02-28T03:51:32;44.17;;;24.83;;
10987;SDS011;5547;42.672;23.230;2024-02-28T03:54:41;45.28;;;26.17;;
10987;SDS011;5547;42.672;23.230;2024-02-28T03:57:42;43.38;;;25.17;;
10987;SDS011;5547;42.672;23.230;2024-02-28T04:00:44;44.83;;;25.77;;
10987;SDS011;5547;42.672;23.230;2024-02-28T04:03:45;46.40;;;27.13;;
10987;SDS011;5547;42.672;23.230;2024-02-28T04:06:46;47.95;;;28.27;;
10987;SDS011;5547;42.672;23.230;2024-02-28T04:09:46;49.40;;;27.40;;
10987;SDS011;5547;42.672;23.230;2024-02-28T04:12:46;46.87;;;27.90;;
10987;SDS011;5547;42.672;23.230;2024-02-28T04:15:46;48.00;;;26.80;;
10987;SDS011;5547;42.672;23.230;2024-02-28T04:18:47;44.83;;;26.00;;
10987;SDS011;5547;42.672;23.230;2024-02-28T04:21:47;45.50;;;26.77;;
10987;SDS011;5547;42.672;23.230;2024-02-28T04:24:47;47.73;;;27.20;;
10987;SDS011;5547;42.672;23.230;2024-02-28T04:27:47;43.47;;;25.33;;
10987;SDS011;5547;42.672;23.230;2024-02-28T04:30:48;41.03;;;24.67;;
10987;SDS011;5547;42.672;23.230;2024-02-28T04:33:48;45.27;;;25.70;;
10987;SDS011;5547;42.672;23.230;2024-02-28T04:36:49;41.42;;;25.42;;
10987;SDS011;5547;42.672;23.230;2024-02-28T04:39:49;42.47;;;24.13;;
10987;SDS011;5547;42.672;23.230;2024-02-28T04:42:49;43.77;;;25.23;;
10987;SDS011;5547;42.672;23.230;2024-02-28T04:45:49;46.93;;;28.07;;
10987;SDS011;5547;42.672;23.230;2024-02-28T04:48:50;49.80;;;28.23;;
10987;SDS011;5547;42.672;23.230;2024-02-28T04:51:50;48.07;;;25.53;;
10987;SDS011;5547;42.672;23.230;2024-02-28T04:54:51;42.33;;;24.40;;
10987;SDS011;5547;42.672;23.230;2024-02-28T04:57:51;48.50;;;26.60;;
10987;SDS011;5547;42.672;23.230;2024-02-28T05:00:51;49.77;;;27.57;;
10987;SDS011;5547;42.672;23.230;2024-02-28T05:03:52;46.63;;;27.10;;
10987;SDS011;5547;42.672;23.230;2024-02-28T05:06:52;47.33;;;26.35;;
10987;SDS011;5547;42.672;23.230;2024-02-28T05:09:53;66.40;;;33.17;;
10987;SDS011;5547;42.672;23.230;2024-02-28T05:12:53;43.93;;;23.73;;
10987;SDS011;5547;42.672;23.230;2024-02-28T05:15:53;44.03;;;24.13;;
10987;SDS011;5547;42.672;23.230;2024-02-28T05:18:54;41.67;;;23.00;;
10987;SDS011;5547;42.672;23.230;2024-02-28T05:21:54;44.27;;;24.33;;
10987;SDS011;5547;42.672;23.230;2024-02-28T05:24:56;48.20;;;27.07;;
10987;SDS011;5547;42.672;23.230;2024-02-28T05:27:56;44.17;;;24.90;;
10987;SDS011;5547;42.672;23.230;2024-02-28T05:30:57;40.80;;;22.07;;
10987;SDS011;5547;42.672;23.230;2024-02-28T05:33:57;38.33;;;22.75;;
10987;SDS011;5547;42.672;23.230;2024-02-28T05:36:58;40.63;;;23.00;;
10987;SDS011;5547;42.672;23.230;2024-02-28T05:40:00;42.47;;;25.73;;
10987;SDS011;5547;42.672;23.230;2024-02-28T05:43:01;41.77;;;23.33;;
10987;SDS011;5547;42.672;23.230;2024-02-28T05:46:02;43.83;;;25.17;;
10987;SDS011;5547;42.672;23.230;2024-02-28T05:49:03;42.75;;;25.92;;
10987;SDS011;5547;42.672;23.230;2024-02-28T05:52:03;42.28;;;25.30;;
10987;SDS011;5547;42.672;23.230;2024-02-28T05:55:04;43.00;;;25.10;;
10987;SDS011;5547;42.672;23.230;2024-02-28T05:58:04;42.08;;;24.85;;
10987;SDS011;5547;42.672;23.230;2024-02-28T06:01:05;40.47;;;25.13;;
10987;SDS011;5547;42.672;23.230;2024-02-28T06:04:07;43.53;;;25.60;;
10987;SDS011;5547;42.672;23.230;2024-02-28T06:07:07;42.33;;;24.43;;
10987;SDS011;5547;42.672;23.230;2024-02-28T06:10:08;39.30;;;23.40;;
10987;SDS011;5547;42.672;23.230;2024-02-28T06:13:10;41.72;;;24.30;;
10987;SDS011;5547;42.672;23.230;2024-02-28T06:16:14;35.97;;;22.20;;
10987;SDS011;5547;42.672;23.230;2024-02-28T06:19:15;38.85;;;23.90;;
10987;SDS011;5547;42.672;23.230;2024-02-28T06:22:16;38.53;;;23.70;;
10987;SDS011;5547;42.672;23.230;2024-02-28T06:25:18;39.75;;;22.92;;
10987;SDS011;5547;42.672;23.230;2024-02-28T06:28:20;39.03;;;22.97;;
10987;SDS011;5547;42.672;23.230;2024-02-28T06:31:20;31.30;;;20.25;;
10987;SDS011;5547;42.672;23.230;2024-02-28T06:34:21;30.70;;;20.60;;
10987;SDS011;5547;42.672;23.230;2024-02-28T06:37:22;34.43;;;20.53;;
10987;SDS011;5547;42.672;23.230;2024-02-28T06:40:25;33.43;;;20.73;;
10987;SDS011;5547;42.672;23.230;2024-02-28T06:43:25;33.80;;;19.88;;
10987;SDS011;5547;42.672;23.230;2024-02-28T06:46:26;32.90;;;21.00;;
10987;SDS011;5547;42.672;23.230;2024-02-28T06:49:26;31.70;;;21.35;;
10987;SDS011;5547;42.672;23.230;2024-02-28T06:52:26;33.90;;;21.17;;
10987;SDS011;5547;42.672;23.230;2024-02-28T06:55:27;33.92;;;20.23;;
10987;SDS011;5547;42.672;23.230;2024-02-28T06:58:27;30.92;;;19.35;;
10987;SDS011;5547;42.672;23.230;2024-02-28T07:01:27;33.60;;;20.63;;
10987;SDS011;5547;42.672;23.230;2024-02-28T07:04:28;32.47;;;20.60;;
10987;SDS011;5547;42.672;23.230;2024-02-28T07:07:28;33.07;;;21.47;;
10987;SDS011;5547;42.672;23.230;2024-02-28T07:10:29;31.67;;;20.47;;
10987;SDS011;5547;42.672;23.230;2024-02-28T07:13:30;30.35;;;19.45;;
10987;SDS011;5547;42.672;23.230;2024-02-28T07:16:30;31.27;;;18.90;;
10987;SDS011;5547;42.672;23.230;2024-02-28T07:19:30;32.80;;;20.70;;
10987;SDS011;5547;42.672;23.230;2024-02-28T07:22:31;35.55;;;20.70;;
10987;SDS011;5547;42.672;23.230;2024-02-28T07:25:31;32.60;;;21.20;;
10987;SDS011;5547;42.672;23.230;2024-02-28T07:28:32;29.43;;;19.50;;
10987;SDS011;5547;42.672;23.230;2024-02-28T07:31:32;30.00;;;18.83;;
10987;SDS011;5547;42.672;23.230;2024-02-28T07:34:33;30.10;;;19.40;;
10987;SDS011;5547;42.672;23.230;2024-02-28T07:37:35;27.90;;;18.08;;
10987;SDS011;5547;42.672;23.230;2024-02-28T07:40:35;29.80;;;19.00;;
10987;SDS011;5547;42.672;23.230;2024-02-28T07:43:42;29.83;;;19.43;;
10987;SDS011;5547;42.672;23.230;2024-02-28T07:46:43;30.23;;;21.27;;
10987;SDS011;5547;42.672;23.230;2024-02-28T07:49:46;24.97;;;16.50;;
10987;SDS011;5547;42.672;23.230;2024-02-28T07:52:47;28.10;;;18.17;;
10987;SDS011;5547;42.672;23.230;2024-02-28T07:55:47;28.48;;;17.95;;
10987;SDS011;5547;42.672;23.230;2024-02-28T07:58:48;27.17;;;18.70;;
10987;SDS011;5547;42.672;23.230;2024-02-28T08:01:48;27.93;;;17.20;;
10987;SDS011;5547;42.672;23.230;2024-02-28T08:04:48;28.67;;;19.07;;
10987;SDS011;5547;42.672;23.230;2024-02-28T08:07:50;30.38;;;19.30;;
10987;SDS011;5547;42.672;23.230;2024-02-28T08:10:51;31.30;;;19.80;;
10987;SDS011;5547;42.672;23.230;2024-02-28T08:13:53;29.60;;;19.30;;
10987;SDS011;5547;42.672;23.230;2024-02-28T08:16:53;32.57;;;21.27;;
10987;SDS011;5547;42.672;23.230;2024-02-28T08:19:54;32.20;;;19.97;;
10987;SDS011;5547;42.672;23.230;2024-02-28T08:22:54;28.42;;;18.30;;
10987;SDS011;5547;42.672;23.230;2024-02-28T08:25:57;30.33;;;18.13;;
10987;SDS011;5547;42.672;23.230;2024-02-28T08:28:57;27.70;;;19.03;;
10987;SDS011;5547;42.672;23.230;2024-02-28T08:31:57;32.03;;;19.40;;
10987;SDS011;5547;42.672;23.230;2024-02-28T08:34:58;26.23;;;19.03;;
10987;SDS011;5547;42.672;23.230;2024-02-28T08:37:58;28.30;;;18.98;;
10987;SDS011;5547;42.672;23.230;2024-02-28T08:40:59;29.88;;;18.42;;
10987;SDS011;5547;42.672;23.230;2024-02-28T08:43:59;29.73;;;18.95;;
10987;SDS011;5547;42.672;23.230;2024-02-28T08:47:00;28.58;;;19.60;;
10987;SDS011;5547;42.672;23.230;2024-02-28T08:50:00;30.10;;;19.90;;
10987;SDS011;5547;42.672;23.230;2024-02-28T08:53:01;29.90;;;20.27;;
10987;SDS011;5547;42.672;23.230;2024-02-28T08:56:01;30.90;;;19.30;;
10987;SDS011;5547;42.672;23.230;2024-02-28T08:59:02;33.37;;;21.53;;
10987;SDS011;5547;42.672;23.230;2024-02-28T09:02:02;31.87;;;19.83;;
10987;SDS011;5547;42.672;23.230;2024-02-28T09:05:04;30.98;;;20.02;;
10987;SDS011;5547;42.672;23.230;2024-02-28T09:08:05;30.35;;;19.52;;
10987;SDS011;5547;42.672;23.230;2024-02-28T09:11:05;29.13;;;18.37;;
10987;SDS011;5547;42.672;23.230;2024-02-28T09:14:08;29.13;;;19.25;;
10987;SDS011;5547;42.672;23.230;2024-02-28T09:17:09;31.48;;;17.95;;
10987;SDS011;5547;42.672;23.230;2024-02-28T09:20:09;27.87;;;18.10;;
10987;SDS011;5547;42.672;23.230;2024-02-28T09:23:10;29.30;;;19.10;;
10987;SDS011;5547;42.672;23.230;2024-02-28T09:26:10;28.13;;;18.27;;
10987;SDS011;5547;42.672;23.230;2024-02-28T09:29:11;26.83;;;17.60;;
10987;SDS011;5547;42.672;23.230;2024-02-28T09:32:11;25.50;;;17.42;;
10987;SDS011;5547;42.672;23.230;2024-02-28T09:35:12;29.70;;;18.80;;
10987;SDS011;5547;42.672;23.230;2024-02-28T09:38:15;28.53;;;19.27;;
10987;SDS011;5547;42.672;23.230;2024-02-28T09:41:15;25.65;;;17.05;;
10987;SDS011;5547;42.672;23.230;2024-02-28T09:44:16;25.75;;;16.20;;
10987;SDS011;5547;42.672;23.230;2024-02-28T09:47:17;24.90;;;15.83;;
10987;SDS011;5547;42.672;23.230;2024-02-28T09:50:21;26.15;;;16.27;;
10987;SDS011;5547;42.672;23.230;2024-02-28T09:53:22;26.98;;;15.82;;
10987;SDS011;5547;42.672;23.230;2024-02-28T09:56:22;26.90;;;16.67;;
10987;SDS011;5547;42.672;23.230;2024-02-28T09:59:23;23.88;;;16.20;;
10987;SDS011;5547;42.672;23.230;2024-02-28T10:02:24;23.97;;;16.83;;
10987;SDS011;5547;42.672;23.230;2024-02-28T10:05:25;25.55;;;15.70;;
10987;SDS011;5547;42.672;23.230;2024-02-28T10:08:28;22.65;;;14.77;;
10987;SDS011;5547;42.672;23.230;2024-02-28T10:11:29;27.45;;;17.55;;
10987;SDS011;5547;42.672;23.230;2024-02-28T10:14:29;24.37;;;15.63;;
10987;SDS011;5547;42.672;23.230;2024-02-28T10:17:30;21.50;;;14.27;;
10987;SDS011;5547;42.672;23.230;2024-02-28T10:20:31;26.73;;;15.90;;
10987;SDS011;5547;42.672;23.230;2024-02-28T10:23:31;27.87;;;15.97;;
10987;SDS011;5547;42.672;23.230;2024-02-28T10:26:31;17.73;;;12.60;;
10987;SDS011;5547;42.672;23.230;2024-02-28T10:29:38;25.10;;;15.00;;
10987;SDS011;5547;42.672;23.230;2024-02-28T10:32:47;25.17;;;16.60;;
10987;SDS011;5547;42.672;23.230;2024-02-28T10:35:50;29.58;;;17.83;;
10987;SDS011;5547;42.672;23.230;2024-02-28T10:38:51;27.02;;;17.13;;
10987;SDS011;5547;42.672;23.230;2024-02-28T10:41:53;33.13;;;17.95;;
10987;SDS011;5547;42.672;23.230;2024-02-28T10:44:53;22.20;;;14.20;;
10987;SDS011;5547;42.672;23.230;2024-02-28T10:47:55;21.88;;;12.07;;
10987;SDS011;5547;42.672;23.230;2024-02-28T10:50:56;20.33;;;13.00;;
10987;SDS011;5547;42.672;23.230;2024-02-28T10:54:02;23.20;;;14.53;;
10987;SDS011;5547;42.672;23.230;2024-02-28T10:57:04;20.90;;;13.20;;
10987;SDS011;5547;42.672;23.230;2024-02-28T11:00:05;18.65;;;13.30;;
10987;SDS011;5547;42.672;23.230;2024-02-28T11:03:06;24.57;;;14.83;;
10987;SDS011;5547;42.672;23.230;2024-02-28T11:06:16;25.30;;;14.05;;
10987;SDS011;5547;42.672;23.230;2024-02-28T11:09:21;23.48;;;14.73;;
10987;SDS011;5547;42.672;23.230;2024-02-28T11:12:26;20.77;;;12.40;;
10987;SDS011;5547;42.672;23.230;2024-02-28T11:15:30;21.52;;;13.20;;
10987;SDS011;5547;42.672;23.230;2024-02-28T11:18:30;20.63;;;12.55;;
10987;SDS011;5547;42.672;23.230;2024-02-28T11:21:34;20.50;;;13.30;;
10987;SDS011;5547;42.672;23.230;2024-02-28T11:24:34;21.07;;;13.30;;
10987;SDS011;5547;42.672;23.230;2024-02-28T11:27:54;16.80;;;10.73;;
10987;SDS011;5547;42.672;23.230;2024-02-28T11:30:55;19.95;;;11.57;;
10987;SDS011;5547;42.672;23.230;2024-02-28T11:33:56;17.38;;;10.88;;
10987;SDS011;5547;42.672;23.230;2024-02-28T11:36:56;16.70;;;10.30;;
10987;SDS011;5547;42.672;23.230;2024-02-28T11:39:58;15.20;;;8.45;;
10987;SDS011;5547;42.672;23.230;2024-02-28T11:42:58;16.90;;;11.50;;
10987;SDS011;5547;42.672;23.230;2024-02-28T11:46:09;18.40;;;10.82;;
10987;SDS011;5547;42.672;23.230;2024-02-28T11:49:11;19.30;;;11.40;;
10987;SDS011;5547;42.672;23.230;2024-02-28T11:52:11;12.95;;;9.13;;
10987;SDS011;5547;42.672;23.230;2024-02-28T11:55:13;14.18;;;8.75;;
10987;SDS011;5547;42.672;23.230;2024-02-28T11:58:15;14.60;;;9.00;;
10987;SDS011;5547;42.672;23.230;2024-02-28T12:01:16;14.98;;;8.70;;
10987;SDS011;5547;42.672;23.230;2024-02-28T12:04:17;14.33;;;8.93;;
10987;SDS011;5547;42.672;23.230;2024-02-28T12:07:19;14.65;;;7.30;;
10987;SDS011;5547;42.672;23.230;2024-02-28T12:10:20;12.25;;;7.07;;
10987;SDS011;5547;42.672;23.230;2024-02-28T12:13:22;11.93;;;7.63;;
10987;SDS011;5547;42.672;23.230;2024-02-28T12:16:24;14.65;;;7.35;;
10987;SDS011;5547;42.672;23.230;2024-02-28T12:19:24;12.85;;;6.15;;
10987;SDS011;5547;42.672;23.230;2024-02-28T12:22:25;10.80;;;6.47;;
10987;SDS011;5547;42.672;23.230;2024-02-28T12:25:25;10.60;;;6.27;;
10987;SDS011;5547;42.672;23.230;2024-02-28T12:28:26;10.05;;;5.78;;
10987;SDS011;5547;42.672;23.230;2024-02-28T12:31:29;10.40;;;6.22;;
10987;SDS011;5547;42.672;23.230;2024-02-28T12:34:30;12.48;;;5.65;;
10987;SDS011;5547;42.672;23.230;2024-02-28T12:37:31;8.70;;;4.97;;
10987;SDS011;5547;42.672;23.230;2024-02-28T12:40:31;9.07;;;5.70;;
10987;SDS011;5547;42.672;23.230;2024-02-28T12:43:32;12.17;;;6.13;;
10987;SDS011;5547;42.672;23.230;2024-02-28T12:46:33;9.57;;;5.88;;
10987;SDS011;5547;42.672;23.230;2024-02-28T12:49:33;11.30;;;6.10;;
10987;SDS011;5547;42.672;23.230;2024-02-28T12:52:34;10.63;;;5.83;;
10987;SDS011;5547;42.672;23.230;2024-02-28T12:55:34;10.55;;;5.57;;
10987;SDS011;5547;42.672;23.230;2024-02-28T12:58:35;8.63;;;5.27;;
10987;SDS011;5547;42.672;23.230;2024-02-28T13:01:35;9.77;;;5.17;;
10987;SDS011;5547;42.672;23.230;2024-02-28T13:04:35;10.27;;;5.97;;
10987;SDS011;5547;42.672;23.230;2024-02-28T13:07:36;10.10;;;5.37;;
10987;SDS011;5547;42.672;23.230;2024-02-28T13:10:36;7.60;;;4.90;;
10987;SDS011;5547;42.672;23.230;2024-02-28T13:13:41;13.30;;;5.93;;
10987;SDS011;5547;42.672;23.230;2024-02-28T13:16:41;10.67;;;6.67;;
10987;SDS011;5547;42.672;23.230;2024-02-28T13:19:41;12.90;;;6.73;;
10987;SDS011;5547;42.672;23.230;2024-02-28T13:22:42;11.50;;;6.77;;
10987;SDS011;5547;42.672;23.230;2024-02-28T13:25:42;13.47;;;7.27;;
10987;SDS011;5547;42.672;23.230;2024-02-28T13:28:46;12.17;;;7.90;;
10987;SDS011;5547;42.672;23.230;2024-02-28T13:31:46;11.52;;;7.55;;
10987;SDS011;5547;42.672;23.230;2024-02-28T13:34:46;13.07;;;7.32;;
10987;SDS011;5547;42.672;23.230;2024-02-28T13:37:47;12.48;;;7.72;;
10987;SDS011;5547;42.672;23.230;2024-02-28T13:40:47;13.10;;;8.37;;
10987;SDS011;5547;42.672;23.230;2024-02-28T13:43:48;14.27;;;8.32;;
10987;SDS011;5547;42.672;23.230;2024-02-28T13:46:50;13.23;;;9.03;;
10987;SDS011;5547;42.672;23.230;2024-02-28T13:49:50;14.77;;;8.75;;
10987;SDS011;5547;42.672;23.230;2024-02-28T13:52:51;12.07;;;8.60;;
10987;SDS011;5547;42.672;23.230;2024-02-28T13:55:53;14.40;;;8.50;;
10987;SDS011;5547;42.672;23.230;2024-02-28T13:58:53;12.80;;;8.15;;
10987;SDS011;5547;42.672;23.230;2024-02-28T14:01:54;16.00;;;8.53;;
10987;SDS011;5547;42.672;23.230;2024-02-28T14:04:54;13.43;;;8.20;;
10987;SDS011;5547;42.672;23.230;2024-02-28T14:07:57;12.73;;;8.30;;
10987;SDS011;5547;42.672;23.230;2024-02-28T14:11:02;11.37;;;7.70;;
10987;SDS011;5547;42.672;23.230;2024-02-28T14:14:02;11.35;;;7.35;;
10987;SDS011;5547;42.672;23.230;2024-02-28T14:17:05;10.90;;;7.53;;
10987;SDS011;5547;42.672;23.230;2024-02-28T14:20:06;14.25;;;8.13;;
10987;SDS011;5547;42.672;23.230;2024-02-28T14:23:06;14.77;;;8.37;;
10987;SDS011;5547;42.672;23.230;2024-02-28T14:26:06;13.20;;;7.87;;
10987;SDS011;5547;42.672;23.230;2024-02-28T14:29:07;12.80;;;7.80;;
10987;SDS011;5547;42.672;23.230;2024-02-28T14:32:07;12.83;;;7.70;;
10987;SDS011;5547;42.672;23.230;2024-02-28T14:35:08;13.70;;;8.07;;
10987;SDS011;5547;42.672;23.230;2024-02-28T14:38:08;13.75;;;8.27;;
10987;SDS011;5547;42.672;23.230;2024-02-28T14:41:10;12.80;;;8.17;;
10987;SDS011;5547;42.672;23.230;2024-02-28T14:44:14;12.23;;;8.15;;
10987;SDS011;5547;42.672;23.230;2024-02-28T14:47:16;13.98;;;7.97;;
10987;SDS011;5547;42.672;23.230;2024-02-28T14:50:17;14.67;;;8.57;;
10987;SDS011;5547;42.672;23.230;2024-02-28T14:53:18;13.07;;;8.60;;
10987;SDS011;5547;42.672;23.230;2024-02-28T14:56:20;15.68;;;8.85;;
10987;SDS011;5547;42.672;23.230;2024-02-28T14:59:20;13.17;;;7.97;;
10987;SDS011;5547;42.672;23.230;2024-02-28T15:02:23;13.50;;;7.80;;
10987;SDS011;5547;42.672;23.230;2024-02-28T15:05:24;12.70;;;8.20;;
10987;SDS011;5547;42.672;23.230;2024-02-28T15:08:24;13.43;;;7.78;;
10987;SDS011;5547;42.672;23.230;2024-02-28T15:11:25;13.30;;;8.50;;
10987;SDS011;5547;42.672;23.230;2024-02-28T15:14:25;13.63;;;7.80;;
10987;SDS011;5547;42.672;23.230;2024-02-28T15:17:26;12.30;;;7.83;;
10987;SDS011;5547;42.672;23.230;2024-02-28T15:20:26;13.70;;;8.53;;
10987;SDS011;5547;42.672;23.230;2024-02-28T15:23:27;12.73;;;8.53;;
10987;SDS011;5547;42.672;23.230;2024-02-28T15:26:27;15.47;;;8.50;;
10987;SDS011;5547;42.672;23.230;2024-02-28T15:29:27;13.80;;;8.63;;
10987;SDS011;5547;42.672;23.230;2024-02-28T15:32:28;17.42;;;10.15;;
10987;SDS011;5547;42.672;23.230;2024-02-28T15:35:29;14.87;;;9.10;;
10987;SDS011;5547;42.672;23.230;2024-02-28T15:38:29;14.67;;;8.00;;
10987;SDS011;5547;42.672;23.230;2024-02-28T15:41:29;14.47;;;8.10;;
10987;SDS011;5547;42.672;23.230;2024-02-28T15:44:30;7.43;;;4.83;;
10987;SDS011;5547;42.672;23.230;2024-02-28T15:47:30;11.20;;;6.43;;
10987;SDS011;5547;42.672;23.230;2024-02-28T15:50:30;9.20;;;6.37;;
10987;SDS011;5547;42.672;23.230;2024-02-28T15:53:31;12.47;;;7.07;;
10987;SDS011;5547;42.672;23.230;2024-02-28T15:56:31;9.13;;;6.20;;
10987;SDS011;5547;42.672;23.230;2024-02-28T15:59:31;7.77;;;4.80;;
10987;SDS011;5547;42.672;23.230;2024-02-28T16:02:31;7.27;;;5.00;;
10987;SDS011;5547;42.672;23.230;2024-02-28T16:05:32;8.17;;;4.53;;
10987;SDS011;5547;42.672;23.230;2024-02-28T16:08:32;5.97;;;3.37;;
10987;SDS011;5547;42.672;23.230;2024-02-28T16:11:33;15.98;;;9.10;;
10987;SDS011;5547;42.672;23.230;2024-02-28T16:14:33;21.17;;;12.45;;
10987;SDS011;5547;42.672;23.230;2024-02-28T16:17:34;15.13;;;8.73;;
10987;SDS011;5547;42.672;23.230;2024-02-28T16:20:35;6.93;;;4.53;;
10987;SDS011;5547;42.672;23.230;2024-02-28T16:23:36;5.80;;;3.50;;
10987;SDS011;5547;42.672;23.230;2024-02-28T16:26:36;8.23;;;4.20;;
10987;SDS011;5547;42.672;23.230;2024-02-28T16:29:36;6.73;;;3.40;;
10987;SDS011;5547;42.672;23.230;2024-02-28T16:32:37;6.03;;;3.60;;
10987;SDS011;5547;42.672;23.230;2024-02-28T16:35:37;6.37;;;3.53;;
10987;SDS011;5547;42.672;23.230;2024-02-28T16:38:37;6.50;;;3.90;;
10987;SDS011;5547;42.672;23.230;2024-02-28T16:41:37;6.37;;;3.47;;
10987;SDS011;5547;42.672;23.230;2024-02-28T16:44:38;7.63;;;3.97;;
10987;SDS011;5547;42.672;23.230;2024-02-28T16:47:38;9.47;;;4.07;;
10987;SDS011;5547;42.672;23.230;2024-02-28T16:50:39;6.00;;;3.60;;
10987;SDS011;5547;42.672;23.230;2024-02-28T16:53:39;7.17;;;4.03;;
10987;SDS011;5547;42.672;23.230;2024-02-28T16:56:39;6.13;;;3.95;;
10987;SDS011;5547;42.672;23.230;2024-02-28T16:59:39;8.30;;;4.47;;
10987;SDS011;5547;42.672;23.230;2024-02-28T17:02:40;9.73;;;5.85;;
10987;SDS011;5547;42.672;23.230;2024-02-28T17:05:40;7.13;;;4.70;;
10987;SDS011;5547;42.672;23.230;2024-02-28T17:08:41;9.10;;;6.47;;
10987;SDS011;5547;42.672;23.230;2024-02-28T17:11:42;16.13;;;12.68;;
10987;SDS011;5547;42.672;23.230;2024-02-28T17:14:42;16.83;;;11.52;;
10987;SDS011;5547;42.672;23.230;2024-02-28T17:17:42;9.88;;;5.88;;
10987;SDS011;5547;42.672;23.230;2024-02-28T17:20:43;8.13;;;5.45;;
10987;SDS011;5547;42.672;23.230;2024-02-28T17:23:43;7.40;;;4.50;;
10987;SDS011;5547;42.672;23.230;2024-02-28T17:26:44;9.45;;;4.22;;
10987;SDS011;5547;42.672;23.230;2024-02-28T17:29:44;7.23;;;4.07;;
10987;SDS011;5547;42.672;23.230;2024-02-28T17:32:45;9.07;;;4.20;;
10987;SDS011;5547;42.672;23.230;2024-02-28T17:35:48;11.20;;;4.60;;
10987;SDS011;5547;42.672;23.230;2024-02-28T17:38:48;8.93;;;4.57;;
10987;SDS011;5547;42.672;23.230;2024-02-28T17:41:48;11.40;;;5.70;;
10987;SDS011;5547;42.672;23.230;2024-02-28T17:44:48;12.30;;;7.27;;